Time;durP1;ratioP1;P1;durP2;ratioP2;P2;SDS_P1;SDS_P2;PMS_P1;PMS_P2;Temp;Humidity;BMP_temperature;BMP_pressure;BME280_temperature;BME280_humidity;BME280_pressure;Samples;Min_cycle;Max_cycle;Signal;HPM_P1;HPM_P2
2022/06/25 00:02:37;;;;;;;0.40;0.30;;;13.70;1.40;;;14.52;100.00;95181.92;646275;216;31478;-74
2022/06/25 00:08:09;;;;;;;0.70;0.50;;;13.80;1.40;;;14.52;100.00;95191.34;618358;226;31816;-75
2022/06/25 00:10:52;;;;;;;0.60;0.30;;;13.80;1.40;;;14.54;100.00;95189.69;646512;212;31491;-75
2022/06/25 00:13:35;;;;;;;0.90;0.40;;;13.70;1.40;;;14.58;100.00;95188.27;646684;216;31523;-75
2022/06/25 00:16:19;;;;;;;0.50;0.30;;;13.70;1.40;;;14.56;100.00;95192.16;646813;216;31504;-74
2022/06/25 00:19:00;;;;;;;0.40;0.20;;;13.70;1.40;;;14.54;100.00;95192.27;646284;212;31473;-75
2022/06/25 00:21:42;;;;;;;0.40;0.20;;;13.70;1.40;;;14.56;100.00;95191.30;618394;226;31790;-75
2022/06/25 00:25:54;;;;;;;0.40;0.30;;;13.70;1.40;;;14.57;100.00;95196.95;619281;222;31802;-74
2022/06/25 00:28:36;;;;;;;0.50;0.40;;;13.70;1.40;;;14.64;100.00;95196.22;647407;216;31642;-75
2022/06/25 00:31:17;;;;;;;0.40;0.20;;;13.70;1.40;;;14.55;100.00;95195.17;648057;212;32101;-75
2022/06/25 00:35:50;;;;;;;0.40;0.20;;;13.70;1.40;;;14.53;100.00;95195.31;617989;226;32020;-75
2022/06/25 00:38:32;;;;;;;1.90;0.40;;;13.70;1.40;;;14.56;100.00;95192.33;646472;216;31478;-75
2022/06/25 00:41:14;;;;;;;1.10;0.30;;;13.70;1.40;;;14.59;100.00;95192.20;619803;225;31807;-75
2022/06/25 00:43:58;;;;;;;1.20;0.30;;;13.70;1.40;;;14.55;100.00;95191.99;646612;216;31578;-75
2022/06/25 00:46:40;;;;;;;0.62;0.20;;;13.70;1.40;;;14.56;100.00;95194.70;646820;212;32425;-74
2022/06/25 00:49:22;;;;;;;0.40;0.30;;;13.70;1.40;;;14.57;100.00;95188.53;646589;216;31505;-74
2022/06/25 00:52:04;;;;;;;0.40;0.30;;;13.60;1.40;;;14.56;100.00;95184.10;646217;216;31762;-74
2022/06/25 00:54:49;;;;;;;0.40;0.30;;;13.60;1.40;;;14.61;100.00;95186.25;646606;216;31711;-75
2022/06/25 00:57:31;;;;;;;0.40;0.20;;;13.60;1.40;;;14.62;100.00;95177.86;647094;216;31920;-75
2022/06/25 01:00:14;;;;;;;0.60;0.30;;;13.60;1.40;;;14.61;100.00;95179.01;647600;216;31542;-75
2022/06/25 01:02:54;;;;;;;0.40;0.30;;;13.60;1.40;;;14.64;100.00;95177.23;646875;216;31490;-75
2022/06/25 01:05:36;;;;;;;0.40;0.30;;;13.70;1.40;;;14.67;100.00;95176.66;645517;216;31564;-75
2022/06/25 01:08:21;;;;;;;0.40;0.20;;;13.70;1.40;;;14.63;100.00;95175.67;647035;212;31536;-75
2022/06/25 01:11:02;;;;;;;0.40;0.20;;;13.60;1.40;;;14.61;100.00;95174.38;647546;216;31637;-75
2022/06/25 01:13:44;;;;;;;0.40;0.20;;;13.70;1.40;;;14.64;100.00;95175.59;645775;216;31579;-74
2022/06/25 01:16:26;;;;;;;0.40;0.20;;;13.70;1.40;;;14.61;100.00;95175.36;648165;216;31563;-75
2022/06/25 01:19:08;;;;;;;;;;;13.70;1.40;;;14.62;100.00;95180.03;653720;216;24815;-75
2022/06/25 01:21:49;;;;;;;;;;;13.70;1.40;;;14.60;100.00;95179.48;652916;216;24758;-74
2022/06/25 01:24:31;;;;;;;;;;;13.70;1.40;;;14.57;100.00;95174.70;653014;212;24829;-74
2022/06/25 01:27:12;;;;;;;;;;;13.70;1.40;;;14.60;100.00;95177.92;653523;216;24177;-75
2022/06/25 01:29:53;;;;;;;;;;;13.70;1.40;;;14.53;100.00;95178.50;653461;216;24982;-74
2022/06/25 01:32:35;;;;;;;;;;;13.70;1.40;;;14.59;100.00;95174.44;653618;212;24967;-75
2022/06/25 01:35:51;;;;;;;0.80;0.30;;;13.70;1.40;;;14.51;100.00;95172.21;645708;216;31501;-75
2022/06/25 01:38:32;;;;;;;0.40;0.20;;;13.70;1.40;;;14.51;100.00;95169.43;619804;226;42754;-74
2022/06/25 01:41:14;;;;;;;0.40;0.20;;;13.70;1.40;;;14.51;100.00;95173.84;647353;216;31511;-74
2022/06/25 01:43:58;;;;;;;0.40;0.30;;;13.70;1.40;;;14.49;100.00;95170.36;647195;216;31730;-74
2022/06/25 01:46:40;;;;;;;0.40;0.30;;;13.70;1.40;;;14.55;100.00;95172.34;647320;216;31884;-74
2022/06/25 01:49:22;;;;;;;0.80;0.30;;;13.70;1.40;;;14.57;100.00;95173.35;647319;216;31492;-74
2022/06/25 01:52:04;;;;;;;3.40;0.50;;;13.70;1.40;;;14.58;100.00;95181.79;645673;216;31515;-74
2022/06/25 01:54:46;;;;;;;0.40;0.20;;;13.80;1.40;;;14.57;100.00;95179.37;645945;216;31478;-74
2022/06/25 01:57:27;;;;;;;0.50;0.40;;;13.70;1.40;;;14.59;100.00;95181.47;646689;216;31462;-73
2022/06/25 02:00:11;;;;;;;0.50;0.40;;;13.70;1.40;;;14.59;100.00;95179.72;647656;216;31895;-73
2022/06/25 02:02:52;;;;;;;;;;;13.70;1.40;;;14.58;100.00;95177.13;652775;216;24926;-74
2022/06/25 02:08:21;;;;;;;;;;;13.70;1.40;;;14.53;100.00;95177.89;653060;216;24844;-74
2022/06/25 02:11:02;;;;;;;;;;;13.60;1.40;;;14.51;100.00;95182.19;652963;216;24838;-74
2022/06/25 02:13:43;;;;;;;;;;;13.60;1.40;;;14.51;100.00;95187.97;653148;216;25437;-74
2022/06/25 02:16:24;;;;;;;;;;;13.60;1.40;;;14.53;100.00;95184.11;652126;216;24777;-74
2022/06/25 02:19:06;;;;;;;;;;;13.60;1.40;;;14.53;100.00;95187.05;653538;216;24826;-73
2022/06/25 02:21:50;;;;;;;;;;;13.60;1.40;;;14.52;100.00;95188.59;654379;216;24845;-74
2022/06/25 02:24:32;;;;;;;;;;;13.60;1.40;;;14.48;100.00;95186.84;653380;216;24827;-73
2022/06/25 02:27:13;;;;;;;;;;;13.60;1.40;;;14.50;100.00;95192.88;652699;216;25048;-74
2022/06/25 02:29:54;;;;;;;;;;;13.70;1.40;;;14.50;100.00;95190.09;653502;216;25454;-74
2022/06/25 02:32:35;;;;;;;;;;;13.60;1.40;;;14.53;100.00;95189.55;653479;212;24853;-74
2022/06/25 02:35:51;;;;;;;0.40;0.20;;;13.60;1.40;;;14.52;100.00;95191.37;646358;216;31476;-73
2022/06/25 02:38:33;;;;;;;2.20;0.40;;;13.60;1.40;;;14.52;100.00;95191.42;645776;216;31545;-74
2022/06/25 02:41:15;;;;;;;0.70;0.30;;;13.60;1.40;;;14.53;100.00;95193.72;647992;216;31476;-74
2022/06/25 02:43:56;;;;;;;0.40;0.20;;;13.60;1.40;;;14.57;100.00;95194.30;619719;226;31828;-74
2022/06/25 02:46:38;;;;;;;0.40;0.20;;;13.60;1.40;;;14.59;100.00;95193.80;646029;212;31471;-74
2022/06/25 02:49:20;;;;;;;0.70;0.40;;;13.60;1.40;;;14.59;100.00;95190.19;647465;212;31473;-74
2022/06/25 02:52:02;;;;;;;0.50;0.30;;;13.60;1.40;;;14.55;100.00;95192.59;644726;216;31540;-75
2022/06/25 02:54:43;;;;;;;0.90;0.40;;;13.50;1.40;;;14.55;100.00;95192.97;644378;215;31512;-74
2022/06/25 03:00:13;;;;;;;0.40;0.20;;;13.50;1.40;;;14.45;100.00;95195.84;646175;216;42092;-75
2022/06/25 03:02:54;;;;;;;0.40;0.20;;;13.50;1.40;;;14.39;100.00;95194.96;646616;216;31776;-75
2022/06/25 03:05:39;;;;;;;0.40;0.30;;;13.50;1.40;;;14.35;100.00;95195.61;646184;216;31567;-74
2022/06/25 03:08:21;;;;;;;0.40;0.20;;;13.50;1.40;;;14.33;100.00;95194.88;647502;216;31469;-75
2022/06/25 03:11:02;;;;;;;;;;;13.50;1.40;;;14.32;100.00;95198.84;653577;216;25353;-74
2022/06/25 03:13:46;;;;;;;;;;;13.40;1.40;;;14.31;100.00;95204.94;653728;216;24714;-75
2022/06/25 03:16:27;;;;;;;;;;;13.40;1.40;;;14.25;100.00;95204.20;652960;212;24816;-75
2022/06/25 03:19:09;;;;;;;;;;;13.40;1.40;;;14.21;100.00;95204.84;654274;216;24850;-75
2022/06/25 03:21:53;;;;;;;;;;;13.40;1.40;;;14.21;100.00;95207.63;653502;212;24818;-75
2022/06/25 03:24:34;;;;;;;;;;;13.40;1.40;;;14.18;100.00;95207.17;653319;212;25279;-75
2022/06/25 03:27:16;;;;;;;;;;;13.40;1.40;;;14.19;100.00;95212.14;654266;216;24812;-75
2022/06/25 03:29:57;;;;;;;;;;;13.40;1.40;;;14.22;100.00;95211.41;653175;212;24983;-74
2022/06/25 03:32:38;;;;;;;;;;;13.40;1.40;;;14.20;100.00;95216.28;653541;212;24712;-75
2022/06/25 03:35:52;;;;;;;0.40;0.40;;;13.30;1.40;;;14.12;100.00;95219.53;646917;216;31464;-74
2022/06/25 03:38:33;;;;;;;0.40;0.22;;;13.30;1.40;;;14.10;100.00;95216.68;647061;216;36347;-76
2022/06/25 03:44:06;;;;;;;0.40;0.20;;;13.30;1.40;;;14.06;100.00;95222.11;646393;212;41491;-75
2022/06/25 03:46:48;;;;;;;0.45;0.32;;;13.30;1.40;;;14.03;100.00;95226.11;646454;216;32086;-75
2022/06/25 03:49:29;;;;;;;0.40;0.20;;;13.30;1.40;;;14.02;100.00;95222.78;646273;212;31572;-74
2022/06/25 03:53:01;;;;;;;0.50;0.40;;;13.30;1.40;;;14.06;100.00;95222.84;640175;216;31637;-74
2022/06/25 03:55:42;;;;;;;0.30;0.20;;;13.30;1.40;;;14.08;100.00;95220.09;646811;216;31459;-74
2022/06/25 03:58:24;;;;;;;0.40;0.20;;;13.40;1.40;;;14.10;100.00;95220.91;645471;216;31520;-74
2022/06/25 04:01:05;;;;;;;;;;;13.40;1.40;;;14.13;100.00;95224.53;652406;216;20326;-74
2022/06/25 04:03:47;;;;;;;;;;;13.40;1.40;;;14.15;100.00;95225.05;653662;216;20302;-74
2022/06/25 04:06:28;;;;;;;;;;;13.40;1.40;;;14.14;100.00;95232.56;652295;216;20354;-74
2022/06/25 04:09:09;;;;;;;;;;;13.50;1.40;;;14.18;100.00;95233.55;638094;221;20316;-75
2022/06/25 04:11:50;;;;;;;;;;;13.40;1.40;;;14.22;100.00;95236.88;652001;216;20459;-74
2022/06/25 04:14:32;;;;;;;;;;;13.50;1.40;;;14.22;100.00;95237.17;623069;224;20310;-74
2022/06/25 04:17:13;;;;;;;;;;;13.50;1.40;;;14.25;100.00;95248.34;652546;216;20356;-74
2022/06/25 04:19:56;;;;;;;;;;;13.50;1.40;;;14.30;100.00;95246.07;653330;216;20325;-74
2022/06/25 04:22:37;;;;;;;;;;;13.50;1.40;;;14.41;100.00;95245.11;654073;216;20302;-74
2022/06/25 04:25:17;;;;;;;;;;;13.60;1.40;;;14.47;100.00;95246.32;653101;216;20930;-74
2022/06/25 04:30:45;;;;;;;;;;;13.70;1.40;;;14.63;100.00;95255.03;648774;216;20411;-74
2022/06/25 04:35:51;;;;;;;0.57;0.37;;;13.90;1.40;;;14.78;100.00;95252.52;645599;216;31551;-73
2022/06/25 04:38:33;;;;;;;0.40;0.20;;;13.90;1.40;;;14.91;100.00;95252.16;646573;216;32264;-74
2022/06/25 04:41:14;;;;;;;;;;;14.10;1.40;;;15.02;100.00;95253.59;653364;216;24822;-74
2022/06/25 04:43:56;;;;;;;;;;;14.10;1.40;;;15.08;100.00;95256.93;652450;216;25316;-74
2022/06/25 04:46:37;;;;;;;;;;;14.30;1.40;;;15.24;100.00;95261.03;653232;216;24846;-75
2022/06/25 04:49:18;;;;;;;;;;;14.40;1.40;;;15.27;100.00;95262.58;653396;216;24820;-75
2022/06/25 04:51:59;;;;;;;;;;;14.40;1.40;;;15.34;100.00;95262.76;651098;216;24764;-75
2022/06/25 04:54:41;;;;;;;;;;;14.50;1.40;;;15.47;100.00;95269.03;653346;216;25298;-74
2022/06/25 04:57:22;;;;;;;;;;;14.70;1.40;;;15.54;100.00;95271.92;653892;216;24823;-75
2022/06/25 05:00:04;;;;;;;;;;;14.80;1.40;;;15.61;100.00;95270.91;652395;216;24826;-74
2022/06/25 05:02:48;;;;;;;;;;;14.80;1.40;;;15.56;100.00;95275.91;652340;216;24838;-74
2022/06/25 05:05:29;;;;;;;;;;;14.90;1.40;;;15.55;100.00;95275.02;653084;216;24845;-74
2022/06/25 05:08:14;;;;;;;;;;;14.90;1.40;;;15.58;100.00;95279.02;652866;212;24837;-74
2022/06/25 05:10:55;;;;;;;;;;;14.90;1.40;;;15.57;100.00;95284.87;653494;212;24717;-74
2022/06/25 05:13:40;;;;;;;;;;;15.00;1.40;;;15.58;100.00;95280.98;653110;216;24883;-73
2022/06/25 05:16:21;;;;;;;;;;;14.90;1.40;;;15.66;100.00;95282.51;651981;212;24858;-74
2022/06/25 05:19:02;;;;;;;;;;;14.90;1.40;;;15.67;100.00;95288.63;653062;216;25066;-74
2022/06/25 05:21:46;;;;;;;;;;;14.90;1.40;;;15.60;100.00;95289.59;652253;212;25023;-73
2022/06/25 05:24:28;;;;;;;;;;;15.00;1.40;;;15.63;100.00;95292.97;652976;212;24734;-75
2022/06/25 05:27:09;;;;;;;;;;;15.00;1.40;;;15.67;100.00;95297.81;653530;212;24823;-74
2022/06/25 05:29:50;;;;;;;;;;;15.00;1.40;;;15.69;100.00;95298.94;651728;216;23881;-74
2022/06/25 05:32:32;;;;;;;;;;;15.10;1.40;;;15.89;100.00;95297.84;653728;216;24810;-74
2022/06/25 05:35:51;;;;;;;1.75;0.37;;;15.20;1.40;;;15.96;100.00;95300.44;646522;212;31998;-73
2022/06/25 05:38:33;;;;;;;0.40;0.30;;;15.20;1.40;;;15.96;100.00;95294.58;646553;216;31555;-73
2022/06/25 05:41:15;;;;;;;0.40;0.30;;;15.30;1.40;;;16.06;100.00;95298.16;646538;216;31612;-74
2022/06/25 05:43:56;;;;;;;0.40;0.30;;;15.30;1.40;;;16.15;100.00;95291.76;647863;212;31566;-73
2022/06/25 05:46:38;;;;;;;0.50;0.22;;;15.40;1.40;;;16.15;100.00;95292.70;645751;216;31514;-73
2022/06/25 05:49:23;;;;;;;0.40;0.30;;;15.40;1.40;;;16.19;100.00;95295.13;618501;226;31826;-73
2022/06/25 05:52:05;;;;;;;0.40;0.20;;;15.50;1.40;;;16.23;100.00;95295.66;644232;216;31635;-73
2022/06/25 05:54:47;;;;;;;0.40;0.30;;;15.50;1.40;;;16.34;100.00;95300.45;646392;216;31574;-73
2022/06/25 05:57:28;;;;;;;0.70;0.40;;;15.60;1.40;;;16.43;100.00;95301.98;646825;216;31724;-73
2022/06/25 06:00:11;;;;;;;0.55;0.30;;;15.70;1.40;;;16.83;100.00;95302.84;647343;212;31508;-73
2022/06/25 06:02:52;;;;;;;0.40;0.20;;;15.90;1.40;;;16.97;100.00;95302.52;646279;212;31483;-73
2022/06/25 06:05:35;;;;;;;0.88;0.30;;;16.00;1.40;;;17.00;100.00;95307.84;646191;212;31481;-73
2022/06/25 06:08:16;;;;;;;1.40;0.50;;;16.10;1.40;;;16.94;100.00;95314.88;645920;216;31476;-74
2022/06/25 06:10:57;;;;;;;1.60;0.60;;;16.00;1.40;;;16.79;100.00;95319.78;647090;216;31471;-73
2022/06/25 06:13:39;;;;;;;0.95;0.30;;;16.00;1.40;;;16.91;100.00;95314.30;646746;216;31480;-74
2022/06/25 06:16:21;;;;;;;0.60;0.30;;;16.00;1.40;;;16.84;100.00;95318.66;647241;212;31507;-74
2022/06/25 06:19:02;;;;;;;1.30;0.70;;;16.00;1.40;;;16.86;100.00;95316.95;646947;216;31766;-74
2022/06/25 06:21:44;;;;;;;0.40;0.32;;;16.00;1.40;;;17.01;100.00;95317.70;647719;212;31616;-74
2022/06/25 06:24:26;;;;;;;0.40;0.30;;;16.00;1.40;;;17.08;100.00;95318.55;646589;216;31489;-74
2022/06/25 06:27:09;;;;;;;0.40;0.30;;;16.10;1.40;;;17.03;100.00;95323.34;646833;216;31569;-74
2022/06/25 06:29:50;;;;;;;0.50;0.40;;;16.10;1.40;;;16.89;100.00;95328.30;647289;216;31543;-74
2022/06/25 06:32:32;;;;;;;0.40;0.25;;;16.10;1.40;;;17.04;100.00;95327.29;646178;216;31481;-75
2022/06/25 06:35:51;;;;;;;0.40;0.30;;;16.10;1.40;;;16.96;100.00;95333.66;647000;216;31548;-73
2022/06/25 06:38:33;;;;;;;0.70;0.30;;;16.10;1.40;;;16.93;100.00;95332.70;646177;216;31634;-74
2022/06/25 06:41:16;;;;;;;0.52;0.50;;;16.10;1.40;;;16.90;100.00;95348.64;646577;216;31521;-73
2022/06/25 06:43:56;;;;;;;0.40;0.20;;;16.10;1.40;;;16.93;100.00;95342.40;647015;216;31472;-72
2022/06/25 06:46:38;;;;;;;0.60;0.35;;;16.00;1.40;;;16.82;100.00;95344.16;646248;216;31619;-73
2022/06/25 06:49:20;;;;;;;0.50;0.30;;;16.00;1.40;;;16.69;100.00;95345.28;646143;212;31464;-74
2022/06/25 06:52:02;;;;;;;0.60;0.35;;;15.90;1.40;;;16.57;100.00;95349.69;646207;212;31481;-74
2022/06/25 06:54:44;;;;;;;0.60;0.40;;;15.70;1.40;;;16.41;100.00;95347.05;646636;216;31640;-73
2022/06/25 06:57:26;;;;;;;0.40;0.20;;;15.60;1.40;;;16.28;100.00;95346.75;646202;216;31558;-73
2022/06/25 07:00:08;;;;;;;0.40;0.30;;;15.50;1.40;;;16.19;100.00;95345.81;631863;221;31574;-73
2022/06/25 07:02:50;;;;;;;0.70;0.68;;;15.40;1.40;;;16.16;100.00;95337.92;647174;212;31502;-73
2022/06/25 07:05:31;;;;;;;0.40;0.20;;;15.30;1.40;;;16.29;100.00;95340.35;646838;212;31470;-73
2022/06/25 07:08:13;;;;;;;2.70;0.30;;;15.60;1.40;;;16.59;100.00;95338.53;645688;216;31511;-73
2022/06/25 07:13:29;;;;;;;0.80;0.60;;;16.20;1.40;;;17.17;100.00;95329.92;647032;216;31693;-73
2022/06/25 07:16:11;;;;;;;0.50;0.30;;;16.50;1.40;;;17.46;100.00;95327.27;646870;216;31502;-74
2022/06/25 07:18:53;;;;;;;1.92;0.70;;;16.80;1.40;;;17.54;100.00;95327.03;619487;226;31806;-75
2022/06/25 07:21:34;;;;;;;0.98;0.57;;;16.90;1.40;;;17.68;100.00;95328.89;646549;212;31483;-74
2022/06/25 07:24:16;;;;;;;0.40;0.30;;;17.00;1.40;;;17.79;100.00;95328.58;646642;216;31614;-73
2022/06/25 07:29:35;;;;;;;0.60;0.60;;;17.30;1.40;;;18.24;100.00;95327.19;646266;212;31455;-74
2022/06/25 07:32:16;;;;;;;0.70;0.40;;;17.40;1.40;;;18.67;100.00;95322.17;647370;212;31467;-74
2022/06/25 07:35:51;;;;;;;0.50;0.50;;;17.90;1.40;;;18.95;100.00;95324.33;618381;226;32135;-74
2022/06/25 07:38:33;;;;;;;0.50;0.40;;;17.90;1.40;;;18.43;100.00;95334.91;645781;216;31872;-75
2022/06/25 07:41:15;;;;;;;0.50;0.50;;;17.50;1.40;;;18.28;100.00;95329.53;646907;216;32065;-74
2022/06/25 07:43:57;;;;;;;0.40;0.30;;;17.30;1.40;;;18.40;100.00;95327.18;646083;216;31902;-73
2022/06/25 07:46:39;;;;;;;0.90;0.60;;;17.70;1.40;;;18.72;100.00;95327.84;647079;212;33155;-74
2022/06/25 07:49:20;;;;;;;0.85;0.50;;;18.10;1.40;;;19.10;100.00;95328.87;619081;226;31893;-73
2022/06/25 07:52:02;;;;;;;0.62;0.45;;;18.50;1.40;;;19.21;100.00;95337.32;644333;216;31776;-74
2022/06/25 07:54:43;;;;;;;0.57;0.40;;;18.50;1.40;;;19.62;100.00;95330.47;646923;216;31493;-74
2022/06/25 07:57:28;;;;;;;0.40;0.30;;;18.90;1.40;;;20.07;100.00;95333.05;646326;216;42107;-73
2022/06/25 08:00:11;;;;;;;0.50;0.40;;;19.00;1.40;;;20.26;100.00;95338.47;646400;216;42693;-74
2022/06/25 08:02:52;;;;;;;1.50;0.45;;;19.30;1.40;;;20.43;100.00;95338.47;619872;226;32090;-74
2022/06/25 08:05:34;;;;;;;0.70;0.40;;;19.40;1.40;;;20.46;100.00;95344.31;646188;216;31543;-74
2022/06/25 08:08:15;;;;;;;0.50;0.35;;;19.50;1.40;;;20.77;100.00;95333.23;646076;216;31472;-74
2022/06/25 08:10:57;;;;;;;0.60;0.40;;;19.60;1.40;;;20.54;100.00;95336.67;646514;212;31479;-75
2022/06/25 08:13:39;;;;;;;2.42;0.40;;;19.10;1.40;;;19.84;100.00;95334.45;646400;216;31863;-75
2022/06/25 08:19:00;;;;;;;0.60;0.40;;;18.80;1.40;;;19.90;100.00;95331.18;646566;216;31645;-74
2022/06/25 08:21:44;;;;;;;0.80;0.50;;;19.10;1.40;;;20.34;100.00;95328.81;645050;216;31634;-73
2022/06/25 08:27:00;;;;;;;0.60;0.50;;;19.50;1.40;;;20.88;100.00;95331.70;646386;216;31876;-74
2022/06/25 08:32:16;;;;;;;0.70;0.40;;;19.60;1.40;;;20.27;100.00;95337.22;646436;216;31505;-74
2022/06/25 08:38:25;;;;;;;0.80;0.40;;;19.10;1.40;;;20.49;100.00;95334.61;645220;216;31480;-74
2022/06/25 08:41:07;;;;;;;2.55;0.40;;;19.50;1.40;;;20.69;100.00;95332.56;646831;212;31501;-74
2022/06/25 08:43:48;;;;;;;1.30;0.40;;;19.60;1.40;;;21.04;100.00;95335.36;645558;216;42732;-74
2022/06/25 08:46:30;;;;;;;0.80;0.60;;;19.90;1.40;;;21.11;100.00;95335.38;645832;216;31619;-73
2022/06/25 08:49:12;;;;;;;0.70;0.50;;;20.00;1.40;;;21.66;100.00;95331.22;646640;216;31860;-74
2022/06/25 08:51:55;;;;;;;0.70;0.40;;;20.30;1.40;;;21.88;100.00;95329.66;646618;216;31579;-74
2022/06/25 08:54:39;;;;;;;3.10;0.60;;;20.80;1.40;;;21.73;100.00;95324.37;619694;226;31986;-74
2022/06/25 08:57:21;;;;;;;0.50;0.40;;;20.40;1.40;;;20.86;100.00;95333.28;646628;216;31475;-74
2022/06/25 09:00:03;;;;;;;0.45;0.30;;;19.90;1.40;;;20.60;100.00;95327.16;646282;216;31572;-74
2022/06/25 09:02:44;;;;;;;0.90;0.40;;;19.60;1.40;;;21.56;100.00;95321.39;646268;216;31653;-74
2022/06/25 09:05:29;;;;;;;0.70;0.40;;;20.70;1.40;;;22.32;100.00;95311.70;619562;226;32123;-74
2022/06/25 09:08:11;;;;;;;0.50;0.30;;;21.10;1.40;;;23.01;100.00;95306.80;645805;212;31974;-73
2022/06/25 09:10:53;;;;;;;0.50;0.40;;;21.70;1.40;;;22.96;100.00;95308.54;647409;212;42264;-76
2022/06/25 09:13:35;;;;;;;0.40;0.30;;;20.80;1.40;;;22.72;100.00;95310.22;646756;212;31770;-73
2022/06/25 09:16:24;;;;;;;0.50;0.40;;;20.80;1.40;;;22.98;100.00;95302.75;618406;222;31813;-75
2022/06/25 09:19:05;;;;;;;0.50;0.32;;;21.70;1.40;;;22.31;100.00;95308.76;646133;216;31645;-76
2022/06/25 09:21:47;;;;;;;0.70;0.70;;;21.40;1.40;;;23.88;100.00;95303.88;646561;216;42111;-75
2022/06/25 09:24:40;;;;;;;1.60;0.40;;;22.60;1.40;;;24.04;96.89;95305.82;646226;212;39564;-75
2022/06/25 09:30:14;;;;;;;1.70;0.60;;;22.60;1.40;;;25.14;86.56;95303.57;645462;216;31545;-75
2022/06/25 09:32:56;;;;;;;0.60;0.40;;;24.60;1.40;;;25.17;87.25;95307.65;645720;212;31459;-75
2022/06/25 09:35:51;;;;;;;0.50;0.30;;;25.40;1.40;;;26.54;82.62;95304.85;647292;216;31589;-76
2022/06/25 09:38:35;;;;;;;0.50;0.50;;;27.90;1.40;;;28.48;81.11;95301.59;646076;216;31516;-75
2022/06/25 09:41:19;;;;;;;0.50;0.30;;;29.90;1.40;;;28.35;75.28;95300.63;647127;212;42094;-75
2022/06/25 09:44:00;;;;;;;0.50;0.40;;;24.90;1.40;;;26.85;77.26;95303.85;647165;212;31511;-75
2022/06/25 09:47:44;;;;;;;0.50;0.50;;;28.10;1.40;;;29.07;69.97;95306.91;646140;216;31634;-74
2022/06/25 09:50:26;;;;;;;0.50;0.40;;;28.80;1.40;;;30.07;71.79;95300.04;645992;216;31472;-75
2022/06/25 09:53:11;;;;;;;0.50;0.40;;;29.60;1.40;;;30.69;64.26;95294.62;638831;212;31710;-75
2022/06/25 09:55:52;;;;;;;1.00;0.43;;;27.10;1.40;;;27.68;66.00;95301.62;646908;216;31504;-75
2022/06/25 09:58:34;;;;;;;0.70;0.50;;;22.80;1.40;;;29.52;69.84;95299.34;646040;216;32070;-75
2022/06/25 10:01:16;;;;;;;0.50;0.40;;;27.10;1.40;;;29.73;62.88;95294.24;645737;212;31796;-76
2022/06/25 10:03:57;;;;;;;0.80;0.60;;;28.60;1.40;;;30.40;63.39;95292.19;646991;216;31532;-76
2022/06/25 10:06:39;;;;;;;0.80;0.40;;;27.80;1.40;;;31.53;55.54;95285.33;646537;216;31679;-75
2022/06/25 10:09:21;;;;;;;0.90;0.50;;;29.00;1.40;;;32.72;57.57;95277.66;645263;216;42264;-75
2022/06/25 10:12:03;;;;;;;0.70;0.30;;;30.30;1.40;;;35.20;54.38;95274.52;618806;222;32211;-75
2022/06/25 10:14:47;;;;;;;0.50;0.40;;;30.90;1.40;;;35.00;53.36;95270.47;646385;216;31517;-76
2022/06/25 10:17:35;;;;;;;0.95;0.52;;;30.80;1.40;;;30.97;48.44;95271.92;645553;216;31575;-75
2022/06/25 10:20:23;;;;;;;0.68;0.50;;;28.10;1.40;;;29.66;52.49;95270.25;619087;226;42540;-77
2022/06/25 10:23:10;;;;;;;0.50;0.40;;;28.70;1.40;;;32.38;51.21;95264.03;646971;216;31525;-74
2022/06/25 10:25:52;;;;;;;0.70;0.50;;;29.80;1.40;;;34.76;50.44;95258.83;645630;212;32014;-75
2022/06/25 10:28:35;;;;;;;0.50;0.45;;;30.70;1.40;;;35.91;49.40;95251.39;645902;216;31554;-75
2022/06/25 10:31:17;;;;;;;1.23;0.40;;;31.50;1.40;;;34.61;44.91;95250.44;647864;212;31584;-78
2022/06/25 10:35:51;;;;;;;0.50;0.40;;;30.60;1.40;;;36.16;47.89;95241.17;647073;212;31621;-73
2022/06/25 10:38:32;;;;;;;0.50;0.40;;;31.20;1.40;;;36.49;45.38;95241.64;647021;216;31519;-74
2022/06/25 10:44:05;;;;;;;0.60;0.40;;;31.70;1.40;;;36.05;44.74;95239.76;647282;216;31820;-74
2022/06/25 10:46:46;;;;;;;0.60;0.50;;;30.20;1.40;;;34.46;44.32;95241.11;645739;212;31575;-73
2022/06/25 10:49:30;;;;;;;0.60;0.40;;;27.20;1.40;;;33.82;44.94;95241.88;646576;216;31504;-73
2022/06/25 10:52:13;;;;;;;0.40;0.40;;;28.80;1.40;;;34.92;42.48;95242.89;644311;212;31850;-73
2022/06/25 10:54:55;;;;;;;0.95;0.55;;;29.70;1.40;;;33.09;42.84;95242.06;646259;212;31615;-75
2022/06/25 10:57:39;;;;;;;0.80;0.55;;;27.20;1.40;;;32.43;45.86;95243.16;645110;212;31518;-74
2022/06/25 11:00:20;;;;;;;1.45;0.55;;;27.40;1.40;;;32.45;47.97;95241.55;645976;216;31621;-73
2022/06/25 11:03:02;;;;;;;0.50;0.30;;;26.30;1.40;;;29.90;50.67;95247.24;646744;212;31611;-73
2022/06/25 11:05:45;;;;;;;0.50;0.40;;;25.10;1.40;;;28.91;51.12;95249.00;646978;216;31469;-74
2022/06/25 11:08:34;;;;;;;0.50;0.50;;;23.90;1.40;;;26.21;59.39;95241.80;647206;216;31506;-75
2022/06/25 11:11:25;;;;;;;0.50;0.40;;;25.00;1.40;;;29.69;55.53;95233.98;646140;215;31609;-75
2022/06/25 11:14:14;;;;;;;2.10;0.50;;;27.50;1.40;;;32.19;49.00;95226.62;646421;216;42149;-76
2022/06/25 11:16:56;;;;;;;1.90;0.50;;;29.20;1.40;;;33.19;47.09;95220.56;646351;216;42685;-74
2022/06/25 11:19:38;;;;;;;0.50;0.40;;;28.70;1.40;;;31.99;45.90;95224.32;645467;212;32541;-75
2022/06/25 11:22:19;;;;;;;0.70;0.50;;;27.10;1.40;;;31.72;47.38;95220.97;647793;216;31656;-75
2022/06/25 11:30:37;;;;;;;0.45;0.30;;;29.20;1.40;;;34.78;45.12;95214.81;646439;212;31494;-75
2022/06/25 11:35:52;;;;;;;1.10;0.70;;;30.30;1.40;;;37.42;40.93;95200.72;646961;216;31847;-74
2022/06/25 11:38:33;;;;;;;0.60;0.40;;;30.70;1.40;;;38.21;40.76;95201.41;619063;222;42510;-74
2022/06/25 11:41:23;;;;;;;0.47;0.40;;;30.50;1.40;;;38.10;40.78;95198.06;646897;216;34051;-78
2022/06/25 11:44:11;;;;;;;2.50;0.60;;;30.00;1.40;;;36.77;39.75;95195.38;647953;216;42155;-74
2022/06/25 11:46:52;;;;;;;1.08;0.45;;;30.30;1.40;;;37.01;39.81;95196.30;647119;216;31532;-74
2022/06/25 11:49:37;;;;;;;0.60;0.32;;;30.20;1.40;;;37.08;38.30;95195.00;645413;212;31537;-73
2022/06/25 11:52:19;;;;;;;0.70;0.40;;;30.30;1.40;;;35.89;38.60;95201.63;644292;212;31664;-73
2022/06/25 11:55:02;;;;;;;1.00;0.43;;;27.00;1.40;;;33.89;41.66;95199.07;646737;213;31578;-74
2022/06/25 11:57:43;;;;;;;1.05;0.60;;;26.90;1.40;;;34.59;41.45;95195.17;646204;216;31609;-73
2022/06/25 12:00:24;;;;;;;0.60;0.40;;;28.80;1.40;;;35.36;38.16;95190.96;646337;212;31543;-73
2022/06/25 12:03:07;;;;;;;0.50;0.40;;;27.90;1.40;;;34.17;39.33;95192.19;646638;216;31527;-74
2022/06/25 12:05:48;;;;;;;0.70;0.40;;;26.30;1.40;;;32.06;42.02;95193.34;618572;226;32034;-74
2022/06/25 12:08:30;;;;;;;0.45;0.30;;;27.20;1.40;;;33.86;41.67;95191.38;646437;212;32203;-74
2022/06/25 12:11:12;;;;;;;0.60;0.40;;;28.80;1.40;;;34.76;39.07;95181.13;647444;216;31616;-74
2022/06/25 12:13:53;;;;;;;0.50;0.40;;;28.80;1.40;;;34.22;38.96;95187.62;645945;212;31545;-74
2022/06/25 12:16:43;;;;;;;0.50;0.40;;;28.60;1.40;;;33.36;40.52;95189.81;646764;216;31604;-73
2022/06/25 12:19:24;;;;;;;0.50;0.40;;;27.00;1.40;;;32.90;42.09;95187.12;646455;212;31495;-73
2022/06/25 12:22:06;;;;;;;0.50;0.30;;;27.60;1.40;;;34.21;39.25;95179.39;619875;226;31786;-74
2022/06/25 12:24:48;;;;;;;0.70;0.40;;;28.30;1.40;;;33.18;39.48;95179.45;645367;216;31498;-73
2022/06/25 12:27:29;;;;;;;2.00;0.40;;;27.80;1.40;;;33.69;37.83;95173.58;647779;212;31510;-73
2022/06/25 12:30:11;;;;;;;0.50;0.30;;;28.00;1.40;;;33.86;41.17;95170.93;647147;216;31674;-73
2022/06/25 12:32:53;;;;;;;0.50;0.40;;;28.50;1.40;;;34.67;39.64;95160.23;647201;212;31717;-74
2022/06/25 12:35:55;;;;;;;0.50;0.50;;;28.70;1.40;;;36.84;39.28;95158.78;619425;226;32374;-74